Time;durP1;ratioP1;P1;durP2;ratioP2;P2;SDS_P1;SDS_P2;PMS_P1;PMS_P2;Temp;Humidity;BMP_temperature;BMP_pressure;BME280_temperature;BME280_humidity;BME280_pressure;Samples;Min_cycle;Max_cycle;Signal;HPM_P1;HPM_P2
2023/05/25 00:05:10;;;;;;;21.70;16.00;;;;;;;12.31;79.21;99917.39;436513;1252;139561;-61
2023/05/25 00:15:16;;;;;;;19.60;15.60;;;;;;;12.24;79.56;99930.85;436795;1253;139878;-61
2023/05/25 00:25:22;;;;;;;19.80;15.90;;;;;;;12.20;79.97;99930.77;436828;1253;141089;-61
2023/05/25 00:35:28;;;;;;;21.10;14.20;;;;;;;12.20;80.12;99943.41;436668;1251;141079;-61
2023/05/25 00:45:33;;;;;;;17.80;15.00;;;;;;;12.17;80.43;99949.58;436841;1251;139637;-61
2023/05/25 00:55:45;;;;;;;19.10;15.70;;;;;;;12.12;80.71;99946.23;436447;1251;139659;-62
2023/05/25 01:05:54;;;;;;;18.70;16.00;;;;;;;12.07;80.92;99943.92;437741;1253;139948;-61
2023/05/25 01:16:00;;;;;;;19.10;14.90;;;;;;;12.01;81.26;99935.31;436637;1253;139842;-62
2023/05/25 01:26:10;;;;;;;20.10;15.10;;;;;;;11.98;81.55;99936.35;437848;1253;139423;-64
2023/05/25 01:36:16;;;;;;;19.40;15.90;;;;;;;11.94;81.83;99930.81;437694;1249;139512;-64
2023/05/25 01:46:30;;;;;;;22.90;15.90;;;;;;;11.89;82.18;99929.73;436809;1253;140272;-61
2023/05/25 01:56:38;;;;;;;19.40;15.50;;;;;;;11.86;82.59;99932.20;437652;1251;139740;-62
2023/05/25 02:06:43;;;;;;;21.10;14.50;;;;;;;11.86;82.83;99930.14;436446;1251;139738;-62
2023/05/25 02:16:49;;;;;;;19.70;15.10;;;;;;;11.84;83.02;99932.48;436253;1253;140199;-62
2023/05/25 02:26:55;;;;;;;18.60;13.80;;;;;;;11.83;83.47;99935.94;436627;1252;139445;-62
2023/05/25 02:37:02;;;;;;;20.50;14.50;;;;;;;11.77;83.86;99941.36;436358;1251;139534;-60
2023/05/25 02:47:08;;;;;;;18.40;15.00;;;;;;;11.74;84.43;99954.20;436307;1251;140121;-61
2023/05/25 02:57:13;;;;;;;21.80;15.10;;;;;;;11.72;85.22;99958.67;436450;1253;139736;-61
2023/05/25 03:07:20;;;;;;;25.10;16.10;;;;;;;11.70;85.78;99951.63;436372;1251;141218;-61
2023/05/25 03:17:25;;;;;;;24.00;16.10;;;;;;;11.70;86.39;99954.94;436573;1251;139185;-61
2023/05/25 03:27:31;;;;;;;19.30;14.40;;;;;;;11.70;87.37;99961.27;436734;1253;140165;-61
2023/05/25 03:37:37;;;;;;;25.90;16.10;;;;;;;11.69;88.25;99972.41;436710;1251;141338;-60
2023/05/25 03:47:44;;;;;;;21.00;15.10;;;;;;;11.68;89.33;99974.58;436578;1251;140520;-61
2023/05/25 03:57:50;;;;;;;22.50;15.20;;;;;;;11.65;90.13;99979.13;436669;1253;141313;-61
2023/05/25 04:07:56;;;;;;;23.20;16.70;;;;;;;11.66;91.05;99986.44;436983;1249;140179;-61
2023/05/25 04:18:02;;;;;;;22.30;15.60;;;;;;;11.69;91.57;99980.23;437486;1251;139481;-62
2023/05/25 04:28:08;;;;;;;22.40;15.80;;;;;;;11.70;92.01;99987.55;436539;1251;140132;-61
2023/05/25 04:38:16;;;;;;;23.30;15.70;;;;;;;11.73;92.24;99989.31;436563;1253;139922;-62
2023/05/25 04:48:23;;;;;;;25.50;16.30;;;;;;;11.80;92.27;99992.25;436937;1249;141697;-61
2023/05/25 04:58:29;;;;;;;27.30;17.60;;;;;;;11.89;92.38;100000.63;437753;1248;140070;-61
2023/05/25 05:08:35;;;;;;;25.90;18.90;;;;;;;11.93;92.12;100004.60;436795;1251;139516;-61
2023/05/25 05:18:41;;;;;;;26.70;17.80;;;;;;;11.99;92.23;100000.90;436909;1251;139333;-61
2023/05/25 05:28:46;;;;;;;21.40;15.40;;;;;;;12.07;91.84;99999.52;436986;1253;140046;-62
2023/05/25 05:38:52;;;;;;;19.10;14.60;;;;;;;12.23;91.23;100005.88;436506;1251;139626;-62
2023/05/25 05:48:58;;;;;;;26.20;14.90;;;;;;;12.43;90.44;100014.41;436427;1251;142388;-62
2023/05/25 05:59:04;;;;;;;18.10;14.30;;;;;;;12.68;89.98;100018.27;436522;1250;141203;-62
2023/05/25 06:09:10;;;;;;;20.90;14.70;;;;;;;12.90;88.68;100021.91;436796;1253;139347;-62
2023/05/25 06:19:15;;;;;;;17.40;14.00;;;;;;;12.98;87.71;100028.06;436806;1250;140282;-61
2023/05/25 06:29:21;;;;;;;17.00;12.50;;;;;;;13.25;87.07;100035.91;436883;1251;140185;-62
2023/05/25 06:39:27;;;;;;;16.60;11.60;;;;;;;13.81;86.07;100045.98;436884;1251;140476;-62
2023/05/25 06:49:33;;;;;;;13.60;10.80;;;;;;;14.41;84.16;100049.51;437926;1250;139928;-61
2023/05/25 06:59:38;;;;;;;10.60;9.60;;;;;;;15.78;82.23;100044.80;436967;1252;140826;-63
2023/05/25 07:09:44;;;;;;;10.50;8.90;;;;;;;18.51;78.16;100040.10;436919;1252;141178;-63
2023/05/25 07:19:50;;;;;;;12.50;9.10;;;;;;;23.65;69.77;100026.60;436832;1251;174996;-62
2023/05/25 07:29:56;;;;;;;8.60;7.60;;;;;;;28.44;60.03;100019.41;436801;1251;140132;-62
2023/05/25 07:40:01;;;;;;;9.70;6.90;;;;;;;33.28;50.97;100014.49;436415;1251;139595;-64
2023/05/25 07:50:09;;;;;;;8.70;7.10;;;;;;;34.75;44.33;100012.91;436315;1251;138931;-65
2023/05/25 08:00:17;;;;;;;6.30;5.70;;;;;;;34.15;39.80;100010.77;436998;1251;139151;-63
2023/05/25 08:10:30;;;;;;;7.40;6.80;;;;;;;30.68;39.56;100012.40;437208;1250;138404;-63
2023/05/25 08:20:36;;;;;;;7.50;6.50;;;;;;;28.28;40.58;100012.98;436909;1253;139402;-63
2023/05/25 08:30:43;;;;;;;7.70;6.40;;;;;;;27.36;41.84;100018.72;437248;1252;140546;-61
2023/05/25 08:41:02;;;;;;;9.50;7.30;;;;;;;26.57;42.53;100014.41;437497;1250;139697;-63
2023/05/25 08:51:10;;;;;;;12.30;7.10;;;;;;;26.02;43.20;100010.21;436684;1251;138651;-62
2023/05/25 09:01:20;;;;;;;11.00;6.30;;;;;;;25.97;43.52;100019.80;438812;1250;139203;-67
2023/05/25 09:11:29;;;;;;;10.30;6.90;;;;;;;25.87;43.79;100018.89;438117;1253;138540;-67
2023/05/25 09:21:44;;;;;;;6.70;6.00;;;;;;;25.74;43.81;100021.05;436812;1248;140272;-66
2023/05/25 09:31:50;;;;;;;8.00;6.50;;;;;;;25.19;44.12;100026.06;436997;1248;138859;-66
2023/05/25 09:41:57;;;;;;;10.30;7.20;;;;;;;24.25;45.18;100033.38;437392;1250;139207;-67
2023/05/25 09:52:03;;;;;;;7.10;6.30;;;;;;;23.96;46.01;100034.31;437204;1251;139783;-68
2023/05/25 10:02:09;;;;;;;11.30;7.30;;;;;;;24.07;46.62;100030.73;437109;1253;138377;-67
2023/05/25 10:12:19;;;;;;;12.70;5.60;;;;;;;24.27;46.81;100027.83;437013;1251;138722;-66
2023/05/25 10:22:31;;;;;;;5.80;5.00;;;;;;;24.74;46.67;100032.98;437232;1251;140027;-67
2023/05/25 10:32:38;;;;;;;9.10;6.50;;;;;;;25.19;45.66;100035.65;436547;1253;139508;-65
2023/05/25 10:42:45;;;;;;;7.80;7.00;;;;;;;24.65;45.74;100040.31;436528;1252;139276;-68
2023/05/25 10:53:02;;;;;;;9.90;6.30;;;;;;;24.71;45.90;100033.64;437218;1252;138956;-67
2023/05/25 11:03:08;;;;;;;9.30;6.90;;;;;;;24.62;45.89;100033.45;436944;1251;138463;-67
2023/05/25 11:13:43;;;;;;;7.40;6.60;;;;;;;24.91;45.83;100026.54;437035;1251;138774;-67
2023/05/25 11:23:57;;;;;;;7.60;5.70;;;;;;;24.30;46.05;100028.30;437420;1253;139801;-67
2023/05/25 11:34:04;;;;;;;6.60;4.90;;;;;;;23.86;46.76;100026.61;436691;1251;139212;-66
2023/05/25 11:44:12;;;;;;;7.00;4.70;;;;;;;23.75;47.36;100020.60;436633;1253;138558;-67
2023/05/25 11:54:24;;;;;;;6.30;4.90;;;;;;;23.87;47.14;100015.65;436796;1251;139758;-65
2023/05/25 12:04:32;;;;;;;7.70;5.10;;;;;;;24.24;46.73;100016.88;436615;1249;140069;-67
2023/05/25 12:14:48;;;;;;;12.80;6.60;;;;;;;24.13;46.54;100015.42;436616;1251;139286;-65
2023/05/25 12:24:54;;;;;;;8.20;5.10;;;;;;;23.89;46.82;100011.72;436811;1253;139099;-66
2023/05/25 12:35:08;;;;;;;6.00;5.40;;;;;;;24.00;46.69;100007.38;436516;1251;138433;-66
2023/05/25 12:45:14;;;;;;;6.60;5.20;;;;;;;24.19;46.24;99997.92;436688;1251;138406;-68
2023/05/25 12:55:25;;;;;;;11.10;5.80;;;;;;;23.57;46.38;99991.67;437821;1252;138128;-66
2023/05/25 13:05:34;;;;;;;13.10;6.20;;;;;;;23.17;46.77;99989.80;437012;1251;139738;-67
2023/05/25 13:15:39;;;;;;;13.30;4.80;;;;;;;23.60;46.92;99974.95;436535;1253;139057;-67
2023/05/25 13:25:45;;;;;;;5.60;5.00;;;;;;;23.79;46.38;99974.95;436809;1253;138810;-67
2023/05/25 13:35:58;;;;;;;8.80;5.10;;;;;;;23.54;46.14;99967.02;436943;1251;139666;-66
2023/05/25 13:46:04;;;;;;;7.70;4.90;;;;;;;23.29;46.14;99961.40;437271;1251;139282;-67
2023/05/25 13:56:10;;;;;;;7.70;5.20;;;;;;;22.55;46.44;99954.48;437144;1252;138733;-67
2023/05/25 14:06:16;;;;;;;6.30;5.70;;;;;;;22.38;46.99;99948.59;437117;1251;138567;-67
2023/05/25 14:16:22;;;;;;;7.10;4.90;;;;;;;22.62;47.27;99943.27;437144;1253;138887;-67
2023/05/25 14:26:28;;;;;;;7.00;4.80;;;;;;;22.78;47.01;99943.27;437312;1248;138810;-67
2023/05/25 14:36:34;;;;;;;7.00;5.20;;;;;;;22.51;46.96;99945.80;436965;1251;139566;-67
2023/05/25 14:46:40;;;;;;;7.20;5.00;;;;;;;22.55;47.16;99938.27;437465;1253;138246;-66
2023/05/25 14:56:46;;;;;;;9.50;4.40;;;;;;;22.62;47.04;99929.71;437370;1251;138833;-67
2023/05/25 15:06:52;;;;;;;5.20;4.50;;;;;;;22.77;46.95;99921.77;436663;1251;138248;-66
2023/05/25 15:16:58;;;;;;;7.80;4.50;;;;;;;22.60;46.69;99920.06;437367;1253;138700;-67
2023/05/25 15:27:05;;;;;;;5.30;4.70;;;;;;;22.59;47.40;99918.23;437053;1251;138312;-66
2023/05/25 15:37:11;;;;;;;9.90;5.40;;;;;;;22.66;47.39;99918.73;436978;1253;138565;-67
2023/05/25 15:47:17;;;;;;;4.70;4.30;;;;;;;22.77;47.38;99915.21;436594;1253;139027;-65
2023/05/25 15:57:23;;;;;;;5.40;4.30;;;;;;;22.72;47.10;99909.11;436429;1253;138308;-65
2023/05/25 16:07:29;;;;;;;4.70;3.90;;;;;;;22.21;47.52;99912.98;436184;1253;139386;-65
2023/05/25 16:17:35;;;;;;;7.90;4.50;;;;;;;21.95;48.07;99917.33;436950;1252;138814;-66
2023/05/25 16:27:40;;;;;;;6.20;5.20;;;;;;;21.91;48.14;99914.98;437068;1251;139284;-65
2023/05/25 16:37:46;;;;;;;6.40;5.00;;;;;;;21.50;48.72;99914.58;437060;1251;138241;-65
2023/05/25 16:47:52;;;;;;;8.70;5.10;;;;;;;21.13;49.34;99912.88;437328;1251;139182;-65
2023/05/25 16:57:58;;;;;;;5.90;4.40;;;;;;;20.84;50.23;99911.05;437254;1248;138640;-66
2023/05/25 17:08:04;;;;;;;6.10;4.30;;;;;;;20.72;50.54;99907.11;437164;1252;138193;-66
2023/05/25 17:18:09;;;;;;;4.90;4.50;;;;;;;20.52;50.91;99907.98;437641;1248;138901;-66
2023/05/25 17:28:15;;;;;;;10.10;5.30;;;;;;;20.21;51.50;99912.54;436975;1251;138316;-66
2023/05/25 17:38:21;;;;;;;5.20;4.70;;;;;;;19.91;52.09;99911.58;437176;1253;138338;-65
2023/05/25 17:48:27;;;;;;;7.00;4.40;;;;;;;19.62;52.84;99916.65;436916;1253;139224;-65
2023/05/25 17:58:32;;;;;;;6.30;5.20;;;;;;;19.38;53.59;99923.77;437002;1251;140924;-65
2023/05/25 18:08:38;;;;;;;5.20;4.50;;;;;;;19.17;54.80;99923.07;436923;1251;139252;-64
2023/05/25 18:18:44;;;;;;;5.20;4.60;;;;;;;19.16;55.59;99927.40;437063;1253;138759;-65
2023/05/25 18:28:50;;;;;;;10.20;5.50;;;;;;;18.65;56.70;99936.27;437525;1252;138756;-66
2023/05/25 18:38:56;;;;;;;11.20;6.20;;;;;;;18.28;58.04;99946.27;436910;1251;138294;-65
2023/05/25 18:49:02;;;;;;;11.00;5.70;;;;;;;17.97;59.22;99956.40;437278;1252;139264;-67
2023/05/25 18:59:07;;;;;;;16.80;6.10;;;;;;;17.69;60.35;99963.34;436731;1253;139484;-65
2023/05/25 19:09:13;;;;;;;9.70;6.20;;;;;;;17.41;61.42;99965.60;436223;1253;138843;-65
2023/05/25 19:19:19;;;;;;;16.10;6.40;;;;;;;17.19;62.43;99966.23;435801;1253;167840;-67
2023/05/25 19:29:25;;;;;;;22.50;7.30;;;;;;;17.06;63.04;99971.91;436276;1251;139326;-66
2023/05/25 19:39:30;;;;;;;10.20;5.70;;;;;;;17.02;63.68;99977.16;436594;1251;139592;-65
2023/05/25 19:49:36;;;;;;;8.90;5.10;;;;;;;17.03;63.97;99979.73;436523;1251;140236;-65
2023/05/25 19:59:42;;;;;;;6.50;5.20;;;;;;;17.02;63.90;99984.25;436593;1254;139393;-60
2023/05/25 20:09:48;;;;;;;7.40;5.10;;;;;;;17.09;64.07;99989.48;436576;1253;140056;-59
2023/05/25 20:19:56;;;;;;;8.00;5.60;;;;;;;17.11;64.22;99994.69;437114;1253;139123;-59
2023/05/25 20:30:02;;;;;;;11.10;6.10;;;;;;;17.09;64.37;99996.77;436888;1253;140738;-60
2023/05/25 20:40:09;;;;;;;6.60;6.00;;;;;;;17.05;64.74;99991.11;436839;1253;139143;-61
2023/05/25 20:50:15;;;;;;;8.30;5.90;;;;;;;16.99;65.16;99983.97;437355;1253;139884;-60
2023/05/25 21:00:22;;;;;;;7.90;6.30;;;;;;;16.86;65.62;99986.78;436898;1253;140336;-60
2023/05/25 21:10:28;;;;;;;7.90;7.20;;;;;;;16.74;66.19;99986.87;437590;1253;139583;-60
2023/05/25 21:20:34;;;;;;;10.20;6.00;;;;;;;16.66;66.35;99980.65;436896;1253;138848;-61
2023/05/25 21:30:40;;;;;;;9.50;6.40;;;;;;;16.63;66.23;99978.65;436949;1254;139101;-60
2023/05/25 21:40:46;;;;;;;6.70;6.00;;;;;;;16.66;65.36;99986.12;437022;1253;139576;-61
2023/05/25 21:50:53;;;;;;;7.60;6.40;;;;;;;16.70;64.68;99984.80;437270;1254;139324;-60
2023/05/25 22:00:58;;;;;;;6.80;6.10;;;;;;;16.69;64.14;99988.42;436612;1253;139516;-60
2023/05/25 22:11:05;;;;;;;5.50;4.90;;;;;;;16.60;63.93;99987.88;436631;1251;139391;-60
2023/05/25 22:21:10;;;;;;;6.30;5.10;;;;;;;16.44;64.06;99987.27;436431;1252;140097;-60
2023/05/25 22:31:17;;;;;;;8.90;6.10;;;;;;;16.27;64.18;99988.83;436443;1251;140252;-60
2023/05/25 22:41:22;;;;;;;7.00;5.10;;;;;;;16.09;64.42;99995.52;436341;1251;139906;-61
2023/05/25 22:51:28;;;;;;;5.30;4.80;;;;;;;15.79;65.11;99998.96;436403;1253;138825;-61
2023/05/25 23:01:34;;;;;;;6.20;4.50;;;;;;;15.45;65.88;99995.06;436561;1251;140618;-61
2023/05/25 23:11:40;;;;;;;17.90;6.10;;;;;;;15.15;66.82;99991.89;436523;1251;139508;-61
2023/05/25 23:21:47;;;;;;;10.00;5.90;;;;;;;14.84;67.83;99997.58;436615;1249;139989;-61
2023/05/25 23:31:52;;;;;;;6.80;6.10;;;;;;;14.55;68.82;100007.42;436926;1253;139706;-60
2023/05/25 23:41:58;;;;;;;7.80;6.00;;;;;;;14.27;69.80;100010.17;436770;1253;140616;-61
2023/05/25 23:52:06;;;;;;;8.50;6.50;;;;;;;14.02;70.43;100007.36;436639;1253;140809;-60
